sensor_id;sensor_type;location;lat;lon;timestamp;P1;durP1;ratioP1;P2;durP2;ratioP2
31732;SDS011;18312;51.486;7.144;2023-10-08T00:01:37;1363.78;;;999.90;;
31732;SDS011;18312;51.486;7.144;2023-10-08T00:04:07;1358.65;;;999.90;;
31732;SDS011;18312;51.486;7.144;2023-10-08T00:06:35;1359.95;;;999.90;;
31732;SDS011;18312;51.486;7.144;2023-10-08T00:09:03;1362.10;;;999.90;;
31732;SDS011;18312;51.486;7.144;2023-10-08T00:11:33;1361.90;;;999.90;;
31732;SDS011;18312;51.486;7.144;2023-10-08T00:14:02;1364.77;;;999.90;;
31732;SDS011;18312;51.486;7.144;2023-10-08T00:16:34;1364.32;;;999.90;;
31732;SDS011;18312;51.486;7.144;2023-10-08T00:19:04;1362.63;;;999.90;;
31732;SDS011;18312;51.486;7.144;2023-10-08T00:21:33;1360.90;;;999.90;;
31732;SDS011;18312;51.486;7.144;2023-10-08T00:24:01;1362.20;;;999.90;;
31732;SDS011;18312;51.486;7.144;2023-10-08T00:26:31;1367.43;;;999.90;;
31732;SDS011;18312;51.486;7.144;2023-10-08T00:29:01;1361.88;;;999.90;;
31732;SDS011;18312;51.486;7.144;2023-10-08T00:31:33;1363.10;;;999.90;;
31732;SDS011;18312;51.486;7.144;2023-10-08T00:34:05;1361.75;;;999.90;;
31732;SDS011;18312;51.486;7.144;2023-10-08T00:36:36;1362.23;;;999.90;;
31732;SDS011;18312;51.486;7.144;2023-10-08T00:39:03;1364.07;;;999.90;;
31732;SDS011;18312;51.486;7.144;2023-10-08T00:41:34;1355.07;;;999.90;;
31732;SDS011;18312;51.486;7.144;2023-10-08T00:44:06;1360.38;;;999.90;;
31732;SDS011;18312;51.486;7.144;2023-10-08T00:46:33;1360.10;;;999.90;;
31732;SDS011;18312;51.486;7.144;2023-10-08T00:49:04;1362.10;;;999.90;;
31732;SDS011;18312;51.486;7.144;2023-10-08T00:51:49;1363.80;;;999.90;;
31732;SDS011;18312;51.486;7.144;2023-10-08T00:54:28;1357.77;;;999.90;;
31732;SDS011;18312;51.486;7.144;2023-10-08T00:56:58;1361.35;;;999.90;;
31732;SDS011;18312;51.486;7.144;2023-10-08T00:59:31;1357.60;;;999.90;;
31732;SDS011;18312;51.486;7.144;2023-10-08T01:02:07;1361.17;;;999.90;;
31732;SDS011;18312;51.486;7.144;2023-10-08T01:04:40;1359.25;;;999.90;;
31732;SDS011;18312;51.486;7.144;2023-10-08T01:07:09;1364.00;;;999.90;;
31732;SDS011;18312;51.486;7.144;2023-10-08T01:09:40;1362.07;;;999.90;;
31732;SDS011;18312;51.486;7.144;2023-10-08T01:12:09;1359.88;;;999.90;;
31732;SDS011;18312;51.486;7.144;2023-10-08T01:14:41;1351.28;;;999.90;;
31732;SDS011;18312;51.486;7.144;2023-10-08T01:17:09;1349.57;;;999.90;;
31732;SDS011;18312;51.486;7.144;2023-10-08T01:19:37;1345.85;;;999.90;;
31732;SDS011;18312;51.486;7.144;2023-10-08T01:22:06;1340.80;;;999.90;;
31732;SDS011;18312;51.486;7.144;2023-10-08T01:24:38;1343.15;;;999.90;;
31732;SDS011;18312;51.486;7.144;2023-10-08T01:27:05;1342.40;;;999.90;;
31732;SDS011;18312;51.486;7.144;2023-10-08T01:29:36;1340.47;;;999.90;;
31732;SDS011;18312;51.486;7.144;2023-10-08T01:32:03;1343.68;;;999.90;;
31732;SDS011;18312;51.486;7.144;2023-10-08T01:34:35;1340.38;;;999.90;;
31732;SDS011;18312;51.486;7.144;2023-10-08T01:37:01;1341.43;;;999.90;;
31732;SDS011;18312;51.486;7.144;2023-10-08T01:39:35;1343.00;;;999.90;;
31732;SDS011;18312;51.486;7.144;2023-10-08T01:42:03;1343.75;;;999.90;;
31732;SDS011;18312;51.486;7.144;2023-10-08T01:44:31;1343.68;;;999.90;;
31732;SDS011;18312;51.486;7.144;2023-10-08T01:46:58;1337.27;;;999.90;;
31732;SDS011;18312;51.486;7.144;2023-10-08T01:49:26;1337.55;;;999.90;;
31732;SDS011;18312;51.486;7.144;2023-10-08T01:51:58;1337.10;;;999.90;;
31732;SDS011;18312;51.486;7.144;2023-10-08T01:54:32;1339.38;;;999.90;;
31732;SDS011;18312;51.486;7.144;2023-10-08T01:57:02;1339.68;;;999.90;;
31732;SDS011;18312;51.486;7.144;2023-10-08T01:59:30;1340.78;;;999.90;;
31732;SDS011;18312;51.486;7.144;2023-10-08T02:01:58;1336.70;;;999.90;;
31732;SDS011;18312;51.486;7.144;2023-10-08T02:04:25;1336.35;;;999.90;;
31732;SDS011;18312;51.486;7.144;2023-10-08T02:06:52;1338.30;;;999.90;;
31732;SDS011;18312;51.486;7.144;2023-10-08T02:09:19;1335.57;;;999.90;;
31732;SDS011;18312;51.486;7.144;2023-10-08T02:11:51;1339.57;;;999.90;;
31732;SDS011;18312;51.486;7.144;2023-10-08T02:14:20;1343.93;;;999.90;;
31732;SDS011;18312;51.486;7.144;2023-10-08T02:16:47;1354.70;;;999.90;;
31732;SDS011;18312;51.486;7.144;2023-10-08T02:19:16;1348.40;;;999.90;;
31732;SDS011;18312;51.486;7.144;2023-10-08T02:21:51;1351.00;;;999.90;;
31732;SDS011;18312;51.486;7.144;2023-10-08T02:24:19;1342.82;;;999.90;;
31732;SDS011;18312;51.486;7.144;2023-10-08T02:26:49;1338.97;;;999.90;;
31732;SDS011;18312;51.486;7.144;2023-10-08T02:29:16;1337.10;;;999.90;;
31732;SDS011;18312;51.486;7.144;2023-10-08T02:31:44;1334.45;;;999.90;;
31732;SDS011;18312;51.486;7.144;2023-10-08T02:34:11;1335.20;;;999.90;;
31732;SDS011;18312;51.486;7.144;2023-10-08T02:36:38;1330.75;;;999.90;;
31732;SDS011;18312;51.486;7.144;2023-10-08T02:39:06;1338.07;;;999.90;;
31732;SDS011;18312;51.486;7.144;2023-10-08T02:41:38;1339.25;;;999.90;;
31732;SDS011;18312;51.486;7.144;2023-10-08T02:44:07;1337.10;;;999.90;;
31732;SDS011;18312;51.486;7.144;2023-10-08T02:46:37;1334.53;;;999.90;;
31732;SDS011;18312;51.486;7.144;2023-10-08T02:49:07;1334.53;;;999.90;;
31732;SDS011;18312;51.486;7.144;2023-10-08T02:51:36;1343.68;;;999.90;;
31732;SDS011;18312;51.486;7.144;2023-10-08T02:54:04;1341.32;;;999.90;;
31732;SDS011;18312;51.486;7.144;2023-10-08T02:56:31;1336.20;;;999.90;;
31732;SDS011;18312;51.486;7.144;2023-10-08T02:58:58;1338.45;;;999.90;;
31732;SDS011;18312;51.486;7.144;2023-10-08T03:01:26;1335.80;;;999.90;;
31732;SDS011;18312;51.486;7.144;2023-10-08T03:03:59;1337.93;;;999.90;;
31732;SDS011;18312;51.486;7.144;2023-10-08T03:06:41;1338.60;;;999.90;;
31732;SDS011;18312;51.486;7.144;2023-10-08T03:09:07;1333.30;;;999.90;;
31732;SDS011;18312;51.486;7.144;2023-10-08T03:11:34;1334.50;;;999.90;;
31732;SDS011;18312;51.486;7.144;2023-10-08T03:14:02;1332.55;;;999.90;;
31732;SDS011;18312;51.486;7.144;2023-10-08T03:16:30;1336.77;;;999.90;;
31732;SDS011;18312;51.486;7.144;2023-10-08T03:19:00;1330.20;;;999.90;;
31732;SDS011;18312;51.486;7.144;2023-10-08T03:21:31;1336.07;;;999.90;;
31732;SDS011;18312;51.486;7.144;2023-10-08T03:24:15;1332.63;;;999.90;;
31732;SDS011;18312;51.486;7.144;2023-10-08T03:26:55;1334.20;;;999.90;;
31732;SDS011;18312;51.486;7.144;2023-10-08T03:29:31;1331.70;;;999.90;;
31732;SDS011;18312;51.486;7.144;2023-10-08T03:31:58;1335.20;;;999.90;;
31732;SDS011;18312;51.486;7.144;2023-10-08T03:34:31;1333.07;;;999.90;;
31732;SDS011;18312;51.486;7.144;2023-10-08T03:36:59;1330.70;;;999.90;;
31732;SDS011;18312;51.486;7.144;2023-10-08T03:39:32;1332.55;;;999.90;;
31732;SDS011;18312;51.486;7.144;2023-10-08T03:42:19;1323.15;;;999.90;;
31732;SDS011;18312;51.486;7.144;2023-10-08T03:44:47;1327.55;;;999.90;;
31732;SDS011;18312;51.486;7.144;2023-10-08T03:47:17;1330.85;;;999.90;;
31732;SDS011;18312;51.486;7.144;2023-10-08T03:49:47;1332.70;;;999.90;;
31732;SDS011;18312;51.486;7.144;2023-10-08T03:52:16;1338.32;;;999.90;;
31732;SDS011;18312;51.486;7.144;2023-10-08T03:54:44;1336.05;;;999.90;;
31732;SDS011;18312;51.486;7.144;2023-10-08T03:57:16;1331.70;;;999.90;;
31732;SDS011;18312;51.486;7.144;2023-10-08T03:59:50;1336.10;;;999.90;;
31732;SDS011;18312;51.486;7.144;2023-10-08T04:02:23;1330.20;;;999.90;;
31732;SDS011;18312;51.486;7.144;2023-10-08T04:05:04;1332.73;;;999.90;;
31732;SDS011;18312;51.486;7.144;2023-10-08T04:07:43;1329.75;;;999.90;;
31732;SDS011;18312;51.486;7.144;2023-10-08T04:10:32;1329.43;;;999.90;;
31732;SDS011;18312;51.486;7.144;2023-10-08T04:13:25;1334.20;;;999.90;;
31732;SDS011;18312;51.486;7.144;2023-10-08T04:15:51;1324.50;;;999.90;;
31732;SDS011;18312;51.486;7.144;2023-10-08T04:18:18;1328.53;;;999.90;;
31732;SDS011;18312;51.486;7.144;2023-10-08T04:20:45;1324.65;;;999.90;;
31732;SDS011;18312;51.486;7.144;2023-10-08T04:23:25;1327.40;;;999.90;;
31732;SDS011;18312;51.486;7.144;2023-10-08T04:25:55;1331.25;;;999.90;;
31732;SDS011;18312;51.486;7.144;2023-10-08T04:28:22;1334.18;;;999.90;;
31732;SDS011;18312;51.486;7.144;2023-10-08T04:30:53;1334.28;;;999.90;;
31732;SDS011;18312;51.486;7.144;2023-10-08T04:33:26;1334.93;;;999.90;;
31732;SDS011;18312;51.486;7.144;2023-10-08T04:35:56;1330.45;;;999.90;;
31732;SDS011;18312;51.486;7.144;2023-10-08T04:38:27;1332.47;;;999.90;;
31732;SDS011;18312;51.486;7.144;2023-10-08T04:40:56;1330.43;;;999.90;;
31732;SDS011;18312;51.486;7.144;2023-10-08T04:43:27;1328.97;;;999.90;;
31732;SDS011;18312;51.486;7.144;2023-10-08T04:45:55;1332.63;;;999.90;;
31732;SDS011;18312;51.486;7.144;2023-10-08T04:48:22;1324.10;;;999.90;;
31732;SDS011;18312;51.486;7.144;2023-10-08T04:50:50;1325.40;;;999.90;;
31732;SDS011;18312;51.486;7.144;2023-10-08T04:53:24;1324.47;;;999.90;;
31732;SDS011;18312;51.486;7.144;2023-10-08T04:55:58;1327.97;;;999.90;;
31732;SDS011;18312;51.486;7.144;2023-10-08T04:58:30;1325.57;;;999.90;;
31732;SDS011;18312;51.486;7.144;2023-10-08T05:01:01;1325.72;;;999.90;;
31732;SDS011;18312;51.486;7.144;2023-10-08T05:03:43;1320.20;;;999.90;;
31732;SDS011;18312;51.486;7.144;2023-10-08T05:06:22;1324.55;;;999.90;;
31732;SDS011;18312;51.486;7.144;2023-10-08T05:09:17;1327.83;;;999.90;;
31732;SDS011;18312;51.486;7.144;2023-10-08T05:11:50;1320.65;;;999.90;;
31732;SDS011;18312;51.486;7.144;2023-10-08T05:14:35;1323.65;;;999.90;;
31732;SDS011;18312;51.486;7.144;2023-10-08T05:17:10;1333.45;;;999.90;;
31732;SDS011;18312;51.486;7.144;2023-10-08T05:19:47;1332.65;;;999.90;;
31732;SDS011;18312;51.486;7.144;2023-10-08T05:22:21;1334.72;;;999.90;;
31732;SDS011;18312;51.486;7.144;2023-10-08T05:25:10;1336.50;;;999.90;;
31732;SDS011;18312;51.486;7.144;2023-10-08T05:27:51;1333.87;;;999.90;;
31732;SDS011;18312;51.486;7.144;2023-10-08T05:30:24;1335.77;;;999.90;;
31732;SDS011;18312;51.486;7.144;2023-10-08T05:32:54;1333.13;;;999.90;;
31732;SDS011;18312;51.486;7.144;2023-10-08T05:35:38;1332.25;;;999.90;;
31732;SDS011;18312;51.486;7.144;2023-10-08T05:38:16;1318.88;;;999.90;;
31732;SDS011;18312;51.486;7.144;2023-10-08T05:41:04;1325.68;;;999.90;;
31732;SDS011;18312;51.486;7.144;2023-10-08T05:43:42;1320.25;;;999.90;;
31732;SDS011;18312;51.486;7.144;2023-10-08T05:46:20;1316.53;;;999.90;;
31732;SDS011;18312;51.486;7.144;2023-10-08T05:49:12;1321.13;;;999.90;;
31732;SDS011;18312;51.486;7.144;2023-10-08T05:51:51;1321.38;;;999.90;;
31732;SDS011;18312;51.486;7.144;2023-10-08T05:54:45;1321.72;;;999.90;;
31732;SDS011;18312;51.486;7.144;2023-10-08T05:57:43;1315.47;;;999.90;;
31732;SDS011;18312;51.486;7.144;2023-10-08T06:00:17;1318.65;;;999.90;;
31732;SDS011;18312;51.486;7.144;2023-10-08T06:03:10;1313.23;;;999.90;;
31732;SDS011;18312;51.486;7.144;2023-10-08T06:05:56;1314.47;;;999.90;;
31732;SDS011;18312;51.486;7.144;2023-10-08T06:08:47;1315.55;;;999.90;;
31732;SDS011;18312;51.486;7.144;2023-10-08T06:11:48;1319.47;;;999.90;;
31732;SDS011;18312;51.486;7.144;2023-10-08T06:14:35;1321.38;;;999.90;;
31732;SDS011;18312;51.486;7.144;2023-10-08T06:17:17;1316.03;;;999.90;;
31732;SDS011;18312;51.486;7.144;2023-10-08T06:19:59;1320.82;;;999.90;;
31732;SDS011;18312;51.486;7.144;2023-10-08T06:22:34;1316.90;;;999.90;;
31732;SDS011;18312;51.486;7.144;2023-10-08T06:25:01;1318.45;;;999.90;;
31732;SDS011;18312;51.486;7.144;2023-10-08T06:27:44;1317.07;;;999.90;;
31732;SDS011;18312;51.486;7.144;2023-10-08T06:30:11;1324.30;;;999.90;;
31732;SDS011;18312;51.486;7.144;2023-10-08T06:32:41;1318.30;;;999.90;;
31732;SDS011;18312;51.486;7.144;2023-10-08T06:35:10;1317.63;;;999.90;;
31732;SDS011;18312;51.486;7.144;2023-10-08T06:37:42;1320.50;;;999.90;;
31732;SDS011;18312;51.486;7.144;2023-10-08T06:40:10;1324.82;;;999.90;;
31732;SDS011;18312;51.486;7.144;2023-10-08T06:42:59;1318.55;;;999.90;;
31732;SDS011;18312;51.486;7.144;2023-10-08T06:45:29;1313.15;;;999.90;;
31732;SDS011;18312;51.486;7.144;2023-10-08T06:47:58;1314.20;;;999.90;;
31732;SDS011;18312;51.486;7.144;2023-10-08T06:50:30;1332.45;;;999.90;;
31732;SDS011;18312;51.486;7.144;2023-10-08T06:52:59;1326.45;;;999.90;;
31732;SDS011;18312;51.486;7.144;2023-10-08T06:55:31;1333.47;;;999.90;;
31732;SDS011;18312;51.486;7.144;2023-10-08T06:58:00;1324.47;;;999.90;;
31732;SDS011;18312;51.486;7.144;2023-10-08T07:00:30;1325.55;;;999.90;;
31732;SDS011;18312;51.486;7.144;2023-10-08T07:03:05;1325.15;;;999.90;;
31732;SDS011;18312;51.486;7.144;2023-10-08T07:05:35;1318.93;;;999.90;;
31732;SDS011;18312;51.486;7.144;2023-10-08T07:08:06;1317.13;;;999.90;;
31732;SDS011;18312;51.486;7.144;2023-10-08T07:10:33;1318.18;;;999.90;;
31732;SDS011;18312;51.486;7.144;2023-10-08T07:13:02;1317.38;;;999.90;;
31732;SDS011;18312;51.486;7.144;2023-10-08T07:15:29;1316.50;;;999.90;;
31732;SDS011;18312;51.486;7.144;2023-10-08T07:17:57;1314.30;;;999.90;;
31732;SDS011;18312;51.486;7.144;2023-10-08T07:20:33;1313.57;;;999.90;;
31732;SDS011;18312;51.486;7.144;2023-10-08T07:23:04;1315.13;;;999.90;;
31732;SDS011;18312;51.486;7.144;2023-10-08T07:25:43;1318.70;;;999.90;;
31732;SDS011;18312;51.486;7.144;2023-10-08T07:28:20;1316.97;;;999.90;;
31732;SDS011;18312;51.486;7.144;2023-10-08T07:30:46;1314.97;;;999.90;;
31732;SDS011;18312;51.486;7.144;2023-10-08T07:33:14;1314.78;;;999.90;;
31732;SDS011;18312;51.486;7.144;2023-10-08T07:35:44;1312.38;;;999.90;;
31732;SDS011;18312;51.486;7.144;2023-10-08T07:38:18;1312.55;;;999.90;;
31732;SDS011;18312;51.486;7.144;2023-10-08T07:40:46;1309.73;;;999.90;;
31732;SDS011;18312;51.486;7.144;2023-10-08T07:43:13;1314.35;;;999.90;;
31732;SDS011;18312;51.486;7.144;2023-10-08T07:45:43;1313.75;;;999.90;;
31732;SDS011;18312;51.486;7.144;2023-10-08T07:48:10;1308.53;;;999.90;;
31732;SDS011;18312;51.486;7.144;2023-10-08T07:50:42;1309.28;;;999.90;;
31732;SDS011;18312;51.486;7.144;2023-10-08T07:53:11;1304.60;;;999.90;;
31732;SDS011;18312;51.486;7.144;2023-10-08T07:55:44;1308.78;;;999.90;;
31732;SDS011;18312;51.486;7.144;2023-10-08T07:58:12;1301.50;;;999.90;;
31732;SDS011;18312;51.486;7.144;2023-10-08T08:00:40;1304.40;;;999.90;;
31732;SDS011;18312;51.486;7.144;2023-10-08T08:03:16;1302.47;;;999.90;;
31732;SDS011;18312;51.486;7.144;2023-10-08T08:05:44;1300.22;;;999.90;;
31732;SDS011;18312;51.486;7.144;2023-10-08T08:08:11;1304.05;;;999.90;;
31732;SDS011;18312;51.486;7.144;2023-10-08T08:10:42;1299.27;;;999.90;;
31732;SDS011;18312;51.486;7.144;2023-10-08T08:13:10;1299.65;;;999.90;;
31732;SDS011;18312;51.486;7.144;2023-10-08T08:15:38;1302.53;;;999.90;;
31732;SDS011;18312;51.486;7.144;2023-10-08T08:18:09;1295.72;;;999.90;;
31732;SDS011;18312;51.486;7.144;2023-10-08T08:20:47;1296.45;;;999.90;;
31732;SDS011;18312;51.486;7.144;2023-10-08T08:23:14;1297.55;;;999.90;;
31732;SDS011;18312;51.486;7.144;2023-10-08T08:25:42;1292.75;;;999.90;;
31732;SDS011;18312;51.486;7.144;2023-10-08T08:28:21;1285.47;;;999.90;;
31732;SDS011;18312;51.486;7.144;2023-10-08T08:30:50;1292.00;;;999.90;;
31732;SDS011;18312;51.486;7.144;2023-10-08T08:33:18;1292.40;;;999.90;;
31732;SDS011;18312;51.486;7.144;2023-10-08T08:35:56;1286.97;;;999.90;;
31732;SDS011;18312;51.486;7.144;2023-10-08T08:38:24;1288.03;;;999.90;;
31732;SDS011;18312;51.486;7.144;2023-10-08T08:40:51;1296.28;;;999.90;;
31732;SDS011;18312;51.486;7.144;2023-10-08T08:43:18;1293.53;;;999.90;;
31732;SDS011;18312;51.486;7.144;2023-10-08T08:45:45;1291.10;;;999.90;;
31732;SDS011;18312;51.486;7.144;2023-10-08T08:48:14;1292.47;;;999.90;;
31732;SDS011;18312;51.486;7.144;2023-10-08T08:50:45;1283.05;;;999.90;;
31732;SDS011;18312;51.486;7.144;2023-10-08T08:53:14;1282.38;;;999.90;;
31732;SDS011;18312;51.486;7.144;2023-10-08T08:55:41;1288.05;;;999.90;;
31732;SDS011;18312;51.486;7.144;2023-10-08T08:58:08;1287.50;;;999.90;;
31732;SDS011;18312;51.486;7.144;2023-10-08T09:00:36;1280.97;;;999.90;;
31732;SDS011;18312;51.486;7.144;2023-10-08T09:03:06;1285.88;;;999.90;;
31732;SDS011;18312;51.486;7.144;2023-10-08T09:05:34;1284.30;;;999.90;;
31732;SDS011;18312;51.486;7.144;2023-10-08T09:08:03;1283.80;;;999.90;;
31732;SDS011;18312;51.486;7.144;2023-10-08T09:10:31;1283.13;;;999.90;;
31732;SDS011;18312;51.486;7.144;2023-10-08T09:13:02;1289.10;;;999.90;;
31732;SDS011;18312;51.486;7.144;2023-10-08T09:15:30;1284.40;;;999.90;;
31732;SDS011;18312;51.486;7.144;2023-10-08T09:17:58;1278.67;;;999.90;;
31732;SDS011;18312;51.486;7.144;2023-10-08T09:20:26;1281.67;;;999.90;;
31732;SDS011;18312;51.486;7.144;2023-10-08T09:23:08;1281.15;;;999.90;;
31732;SDS011;18312;51.486;7.144;2023-10-08T09:25:37;1276.65;;;999.90;;
31732;SDS011;18312;51.486;7.144;2023-10-08T09:28:05;1283.32;;;999.90;;
31732;SDS011;18312;51.486;7.144;2023-10-08T09:30:32;1285.85;;;999.90;;
31732;SDS011;18312;51.486;7.144;2023-10-08T09:33:03;1280.97;;;999.90;;
31732;SDS011;18312;51.486;7.144;2023-10-08T09:35:30;1283.15;;;999.90;;
31732;SDS011;18312;51.486;7.144;2023-10-08T09:37:59;1282.65;;;999.90;;
31732;SDS011;18312;51.486;7.144;2023-10-08T09:40:29;1278.78;;;999.90;;
31732;SDS011;18312;51.486;7.144;2023-10-08T09:42:55;1273.05;;;999.90;;
31732;SDS011;18312;51.486;7.144;2023-10-08T09:45:25;1279.03;;;999.90;;
31732;SDS011;18312;51.486;7.144;2023-10-08T09:47:53;1280.82;;;999.90;;
31732;SDS011;18312;51.486;7.144;2023-10-08T09:50:22;1272.38;;;999.90;;
31732;SDS011;18312;51.486;7.144;2023-10-08T09:52:55;1274.93;;;999.90;;
31732;SDS011;18312;51.486;7.144;2023-10-08T09:55:30;1277.45;;;999.90;;
31732;SDS011;18312;51.486;7.144;2023-10-08T09:57:58;1275.80;;;999.90;;
31732;SDS011;18312;51.486;7.144;2023-10-08T10:00:26;1273.68;;;999.90;;
31732;SDS011;18312;51.486;7.144;2023-10-08T10:02:58;1267.47;;;999.90;;
31732;SDS011;18312;51.486;7.144;2023-10-08T10:05:29;1261.68;;;999.90;;
31732;SDS011;18312;51.486;7.144;2023-10-08T10:07:56;1267.53;;;999.90;;
31732;SDS011;18312;51.486;7.144;2023-10-08T10:10:27;1265.90;;;999.90;;
31732;SDS011;18312;51.486;7.144;2023-10-08T10:12:59;1270.85;;;999.90;;
31732;SDS011;18312;51.486;7.144;2023-10-08T10:15:26;1266.55;;;999.90;;
31732;SDS011;18312;51.486;7.144;2023-10-08T10:17:58;1273.57;;;999.90;;
31732;SDS011;18312;51.486;7.144;2023-10-08T10:20:34;1272.55;;;999.90;;
31732;SDS011;18312;51.486;7.144;2023-10-08T10:26:01;1276.55;;;999.90;;
31732;SDS011;18312;51.486;7.144;2023-10-08T10:28:30;1273.88;;;999.90;;
31732;SDS011;18312;51.486;7.144;2023-10-08T10:30:58;1276.45;;;999.90;;
31732;SDS011;18312;51.486;7.144;2023-10-08T10:33:29;1273.80;;;999.90;;
31732;SDS011;18312;51.486;7.144;2023-10-08T10:35:57;1270.13;;;999.90;;
31732;SDS011;18312;51.486;7.144;2023-10-08T10:38:25;1276.82;;;999.90;;
31732;SDS011;18312;51.486;7.144;2023-10-08T10:40:52;1279.97;;;999.90;;
31732;SDS011;18312;51.486;7.144;2023-10-08T10:43:26;1271.20;;;999.90;;
31732;SDS011;18312;51.486;7.144;2023-10-08T10:46:00;1276.07;;;999.90;;
31732;SDS011;18312;51.486;7.144;2023-10-08T10:48:49;1279.47;;;999.90;;
31732;SDS011;18312;51.486;7.144;2023-10-08T10:51:29;1278.07;;;999.90;;
31732;SDS011;18312;51.486;7.144;2023-10-08T10:53:55;1270.50;;;999.90;;
31732;SDS011;18312;51.486;7.144;2023-10-08T10:56:32;1274.18;;;999.90;;
31732;SDS011;18312;51.486;7.144;2023-10-08T10:59:05;1279.53;;;999.90;;
31732;SDS011;18312;51.486;7.144;2023-10-08T11:01:43;1280.20;;;999.90;;
31732;SDS011;18312;51.486;7.144;2023-10-08T11:04:17;1279.15;;;999.90;;
31732;SDS011;18312;51.486;7.144;2023-10-08T11:06:45;1287.30;;;999.90;;
31732;SDS011;18312;51.486;7.144;2023-10-08T11:09:19;1284.18;;;999.90;;
31732;SDS011;18312;51.486;7.144;2023-10-08T11:12:01;1285.47;;;999.90;;
31732;SDS011;18312;51.486;7.144;2023-10-08T11:14:35;1294.97;;;999.90;;
31732;SDS011;18312;51.486;7.144;2023-10-08T11:17:10;1294.15;;;999.90;;
31732;SDS011;18312;51.486;7.144;2023-10-08T11:19:38;1293.45;;;999.90;;
31732;SDS011;18312;51.486;7.144;2023-10-08T11:22:21;1291.25;;;999.90;;
31732;SDS011;18312;51.486;7.144;2023-10-08T11:24:54;1296.70;;;999.90;;
31732;SDS011;18312;51.486;7.144;2023-10-08T11:27:22;1296.85;;;999.90;;
31732;SDS011;18312;51.486;7.144;2023-10-08T11:29:55;1301.65;;;999.90;;
31732;SDS011;18312;51.486;7.144;2023-10-08T11:32:24;1304.00;;;999.90;;
31732;SDS011;18312;51.486;7.144;2023-10-08T11:34:56;1304.22;;;999.90;;
31732;SDS011;18312;51.486;7.144;2023-10-08T11:37:28;1300.32;;;999.90;;
31732;SDS011;18312;51.486;7.144;2023-10-08T11:39:55;1300.85;;;999.90;;
31732;SDS011;18312;51.486;7.144;2023-10-08T11:42:24;1301.70;;;999.90;;
31732;SDS011;18312;51.486;7.144;2023-10-08T11:45:10;1305.28;;;999.90;;
31732;SDS011;18312;51.486;7.144;2023-10-08T11:47:54;1297.40;;;999.90;;
31732;SDS011;18312;51.486;7.144;2023-10-08T11:50:28;1299.28;;;999.90;;
31732;SDS011;18312;51.486;7.144;2023-10-08T11:53:00;1301.88;;;999.90;;
31732;SDS011;18312;51.486;7.144;2023-10-08T11:55:28;1302.22;;;999.90;;
31732;SDS011;18312;51.486;7.144;2023-10-08T11:57:59;1300.60;;;999.90;;
31732;SDS011;18312;51.486;7.144;2023-10-08T12:00:41;1301.50;;;999.90;;
31732;SDS011;18312;51.486;7.144;2023-10-08T12:03:11;1300.97;;;999.90;;
31732;SDS011;18312;51.486;7.144;2023-10-08T12:05:43;1304.20;;;999.90;;
31732;SDS011;18312;51.486;7.144;2023-10-08T12:08:12;1304.53;;;999.90;;
31732;SDS011;18312;51.486;7.144;2023-10-08T12:10:42;1313.63;;;999.90;;
31732;SDS011;18312;51.486;7.144;2023-10-08T12:13:12;1323.95;;;999.90;;
31732;SDS011;18312;51.486;7.144;2023-10-08T12:15:41;1324.37;;;999.90;;
31732;SDS011;18312;51.486;7.144;2023-10-08T12:18:09;1322.95;;;999.90;;
31732;SDS011;18312;51.486;7.144;2023-10-08T12:20:40;1317.72;;;999.90;;
31732;SDS011;18312;51.486;7.144;2023-10-08T12:23:10;1315.37;;;999.90;;
31732;SDS011;18312;51.486;7.144;2023-10-08T12:25:48;1313.35;;;999.90;;
31732;SDS011;18312;51.486;7.144;2023-10-08T12:28:16;1308.47;;;999.90;;
31732;SDS011;18312;51.486;7.144;2023-10-08T12:30:44;1309.13;;;999.90;;
31732;SDS011;18312;51.486;7.144;2023-10-08T12:33:12;1314.60;;;999.90;;
31732;SDS011;18312;51.486;7.144;2023-10-08T12:35:41;1315.22;;;999.90;;
31732;SDS011;18312;51.486;7.144;2023-10-08T12:38:09;1314.30;;;999.90;;
31732;SDS011;18312;51.486;7.144;2023-10-08T12:40:37;1323.53;;;999.90;;
31732;SDS011;18312;51.486;7.144;2023-10-08T12:43:17;1324.55;;;999.90;;
31732;SDS011;18312;51.486;7.144;2023-10-08T12:45:45;1322.72;;;999.90;;
31732;SDS011;18312;51.486;7.144;2023-10-08T12:48:19;1318.65;;;999.90;;
31732;SDS011;18312;51.486;7.144;2023-10-08T12:50:46;1320.77;;;999.90;;
31732;SDS011;18312;51.486;7.144;2023-10-08T12:53:19;1315.22;;;999.90;;
31732;SDS011;18312;51.486;7.144;2023-10-08T12:55:49;1320.55;;;999.90;;
31732;SDS011;18312;51.486;7.144;2023-10-08T12:58:18;1320.75;;;999.90;;
31732;SDS011;18312;51.486;7.144;2023-10-08T13:00:52;1320.47;;;999.90;;
31732;SDS011;18312;51.486;7.144;2023-10-08T13:03:25;1316.45;;;999.90;;
31732;SDS011;18312;51.486;7.144;2023-10-08T13:05:55;1316.85;;;999.90;;
31732;SDS011;18312;51.486;7.144;2023-10-08T13:08:28;1315.25;;;999.90;;
31732;SDS011;18312;51.486;7.144;2023-10-08T13:10:55;1317.50;;;999.90;;
31732;SDS011;18312;51.486;7.144;2023-10-08T13:13:25;1314.28;;;999.90;;
31732;SDS011;18312;51.486;7.144;2023-10-08T13:15:52;1319.00;;;999.90;;
31732;SDS011;18312;51.486;7.144;2023-10-08T13:18:21;1317.90;;;999.90;;
31732;SDS011;18312;51.486;7.144;2023-10-08T13:20:49;1316.45;;;999.90;;
31732;SDS011;18312;51.486;7.144;2023-10-08T13:23:16;1323.20;;;999.90;;
31732;SDS011;18312;51.486;7.144;2023-10-08T13:25:45;1323.43;;;999.90;;
31732;SDS011;18312;51.486;7.144;2023-10-08T13:28:19;1320.37;;;999.90;;
31732;SDS011;18312;51.486;7.144;2023-10-08T13:30:47;1329.03;;;999.90;;
31732;SDS011;18312;51.486;7.144;2023-10-08T13:33:18;1326.50;;;999.90;;
31732;SDS011;18312;51.486;7.144;2023-10-08T13:35:45;1329.20;;;999.90;;
31732;SDS011;18312;51.486;7.144;2023-10-08T13:38:16;1333.63;;;999.90;;
31732;SDS011;18312;51.486;7.144;2023-10-08T13:40:45;1333.70;;;999.90;;
31732;SDS011;18312;51.486;7.144;2023-10-08T13:43:26;1334.68;;;999.90;;
31732;SDS011;18312;51.486;7.144;2023-10-08T13:45:58;1333.75;;;999.90;;
31732;SDS011;18312;51.486;7.144;2023-10-08T13:48:30;1331.80;;;999.90;;
31732;SDS011;18312;51.486;7.144;2023-10-08T13:50:59;1328.35;;;999.90;;
31732;SDS011;18312;51.486;7.144;2023-10-08T13:53:27;1330.25;;;999.90;;
31732;SDS011;18312;51.486;7.144;2023-10-08T13:55:55;1327.20;;;999.90;;
31732;SDS011;18312;51.486;7.144;2023-10-08T13:58:23;1324.60;;;999.90;;
31732;SDS011;18312;51.486;7.144;2023-10-08T14:00:50;1326.90;;;999.90;;
31732;SDS011;18312;51.486;7.144;2023-10-08T14:03:18;1327.60;;;999.90;;
31732;SDS011;18312;51.486;7.144;2023-10-08T14:05:46;1320.40;;;999.90;;
31732;SDS011;18312;51.486;7.144;2023-10-08T14:08:15;1325.15;;;999.90;;
31732;SDS011;18312;51.486;7.144;2023-10-08T14:10:44;1318.07;;;999.90;;
31732;SDS011;18312;51.486;7.144;2023-10-08T14:13:13;1317.32;;;999.90;;